This is the latest recevied weather packets stored in our database for station/object KQ4OSL. If no packets are shown the sender has not sent any weather packets the latest 10 day(s).
| Time | Temp. | Humidity | Pressure | Rain* | Wind** | Luminosity | Snow |
|---|---|---|---|---|---|---|---|
| 1787684215 | 31.67° C | 50% | 1019.2 hPa | 0 mm | - | 666 W/m² | - |
| 1787683912 | 31.11° C | 51% | 1019.3 hPa | 0 mm | - | 672 W/m² | - |
| 1787683611 | 31.67° C | 50% | 1019.3 hPa | 0 mm | - | 689 W/m² | - |
| 1787683306 | 31.67° C | 54% | 1019.3 hPa | 0 mm | - | 695 W/m² | - |
| 1787683003 | 31.11° C | 51% | 1019.4 hPa | 0 mm | - | 703 W/m² | - |
| 1787682699 | 31.67° C | 49% | 1019.1 hPa | 0 mm | - | 707 W/m² | - |
| 1787653284 | 17.22° C | 99% | 1019.1 hPa | 3.05 mm | - | 0 W/m² | - |
| 1787652979 | 17.22° C | 99% | 1019.3 hPa | 6.1 mm | - | 0 W/m² | - |
| 1787652675 | 17.22° C | 99% | 1019.1 hPa | 4.83 mm | - | 0 W/m² | - |
| 1787652375 | 17.22° C | 99% | 1019.1 hPa | 3.56 mm | - | 0 W/m² | - |
| 1787652070 | 17.22° C | 99% | 1019.1 hPa | 4.83 mm | - | 0 W/m² | - |
| 1787651768 | 17.22° C | 99% | 1019 hPa | 3.05 mm | - | 0 W/m² | - |
| 1787651463 | 17.22° C | 99% | 1018.9 hPa | 0 mm | - | 0 W/m² | - |
| 1787651158 | 17.78° C | 99% | 1018.9 hPa | 0 mm | - | 0 W/m² | - |
| 1787650855 | 17.78° C | 99% | 1018.9 hPa | 0 mm | - | 0 W/m² | - |
| 1787650549 | 17.78° C | 99% | 1019 hPa | 0 mm | - | 0 W/m² | - |
| 1787650246 | 17.78° C | 99% | 1019.1 hPa | 0 mm | - | 0 W/m² | - |
| 1787649945 | 17.78° C | 99% | 1018.8 hPa | 0 mm | - | 0 W/m² | - |
| 1787649641 | 17.78° C | 99% | 1018.8 hPa | 0 mm | - | 0 W/m² | - |
| 1787649335 | 17.78° C | 99% | 1018.9 hPa | 0 mm | - | 0 W/m² | - |
| 1787649031 | 17.78° C | 99% | 1018.6 hPa | 0 mm | - | 0 W/m² | - |
| 1787648725 | 17.78° C | 99% | 1018.8 hPa | 0 mm | - | 0 W/m² | - |
| 1787648424 | 17.78° C | 99% | 1018.8 hPa | 0 mm | - | 0 W/m² | - |
| 1787648117 | 17.78° C | 99% | 1018.7 hPa | 0 mm | - | 0 W/m² | - |
| 1787647812 | 17.78° C | 99% | 1018.8 hPa | 0 mm | - | 0 W/m² | - |
* Rain latest hour (hover to see other rain measurements)
** Current wind speed in m/s (hover to see current wind gust speed)